sensor_id;sensor_type;location;lat;lon;timestamp;temperature;humidity
14095;DHT22;18096;48.142;16.290;2023-01-16T00:00:30;7.20;99.90
14095;DHT22;18096;48.142;16.290;2023-01-16T00:02:56;7.20;99.90
14095;DHT22;18096;48.142;16.290;2023-01-16T00:05:22;7.20;99.90
14095;DHT22;18096;48.142;16.290;2023-01-16T00:07:47;7.20;99.90
14095;DHT22;18096;48.142;16.290;2023-01-16T00:10:13;7.10;99.90
14095;DHT22;18096;48.142;16.290;2023-01-16T00:12:39;7.10;99.90
14095;DHT22;18096;48.142;16.290;2023-01-16T00:15:05;7.10;99.90
14095;DHT22;18096;48.142;16.290;2023-01-16T00:17:31;7.10;99.90
14095;DHT22;18096;48.142;16.290;2023-01-16T00:19:56;7.10;99.90
14095;DHT22;18096;48.142;16.290;2023-01-16T00:22:22;7.10;99.90
14095;DHT22;18096;48.142;16.290;2023-01-16T00:24:48;7.00;99.90
14095;DHT22;18096;48.142;16.290;2023-01-16T00:27:13;7.10;99.90
14095;DHT22;18096;48.142;16.290;2023-01-16T00:29:39;7.10;99.90
14095;DHT22;18096;48.142;16.290;2023-01-16T00:32:05;7.00;99.90
14095;DHT22;18096;48.142;16.290;2023-01-16T00:34:30;7.00;99.90
14095;DHT22;18096;48.142;16.290;2023-01-16T00:36:56;7.00;99.90
14095;DHT22;18096;48.142;16.290;2023-01-16T00:39:22;7.00;99.90
14095;DHT22;18096;48.142;16.290;2023-01-16T00:41:47;7.00;99.90
14095;DHT22;18096;48.142;16.290;2023-01-16T00:44:13;7.00;99.90
14095;DHT22;18096;48.142;16.290;2023-01-16T00:46:39;7.00;99.90
14095;DHT22;18096;48.142;16.290;2023-01-16T00:49:05;6.90;99.90
14095;DHT22;18096;48.142;16.290;2023-01-16T00:51:30;6.90;99.90
14095;DHT22;18096;48.142;16.290;2023-01-16T00:53:56;6.90;99.90
14095;DHT22;18096;48.142;16.290;2023-01-16T00:56:21;6.90;99.90
14095;DHT22;18096;48.142;16.290;2023-01-16T00:58:47;7.00;99.90
14095;DHT22;18096;48.142;16.290;2023-01-16T01:01:13;7.00;99.90
14095;DHT22;18096;48.142;16.290;2023-01-16T01:03:38;6.90;99.90
14095;DHT22;18096;48.142;16.290;2023-01-16T01:06:08;6.90;99.90
14095;DHT22;18096;48.142;16.290;2023-01-16T01:08:34;6.90;99.90
14095;DHT22;18096;48.142;16.290;2023-01-16T01:11:09;6.90;99.90
14095;DHT22;18096;48.142;16.290;2023-01-16T01:13:35;6.90;99.90
14095;DHT22;18096;48.142;16.290;2023-01-16T01:16:01;6.90;99.90
14095;DHT22;18096;48.142;16.290;2023-01-16T01:18:26;6.90;99.90
14095;DHT22;18096;48.142;16.290;2023-01-16T01:20:52;6.80;99.90
14095;DHT22;18096;48.142;16.290;2023-01-16T01:23:17;6.80;99.90
14095;DHT22;18096;48.142;16.290;2023-01-16T01:25:43;6.80;99.90
14095;DHT22;18096;48.142;16.290;2023-01-16T01:28:09;6.80;99.90
14095;DHT22;18096;48.142;16.290;2023-01-16T01:30:35;6.80;99.90
14095;DHT22;18096;48.142;16.290;2023-01-16T01:33:00;6.80;99.90
14095;DHT22;18096;48.142;16.290;2023-01-16T01:35:26;6.70;99.90
14095;DHT22;18096;48.142;16.290;2023-01-16T01:37:52;6.80;99.90
14095;DHT22;18096;48.142;16.290;2023-01-16T01:40:17;6.70;99.90
14095;DHT22;18096;48.142;16.290;2023-01-16T01:42:43;6.70;99.90
14095;DHT22;18096;48.142;16.290;2023-01-16T01:45:25;6.70;99.90
14095;DHT22;18096;48.142;16.290;2023-01-16T01:50:26;6.70;99.90
14095;DHT22;18096;48.142;16.290;2023-01-16T01:52:57;6.70;99.90
14095;DHT22;18096;48.142;16.290;2023-01-16T01:55:25;6.80;99.90
14095;DHT22;18096;48.142;16.290;2023-01-16T01:57:57;6.80;99.90
14095;DHT22;18096;48.142;16.290;2023-01-16T02:00:26;6.80;99.90
14095;DHT22;18096;48.142;16.290;2023-01-16T02:03:06;6.80;99.90
14095;DHT22;18096;48.142;16.290;2023-01-16T02:05:37;6.70;99.90
14095;DHT22;18096;48.142;16.290;2023-01-16T02:08:05;6.80;99.90
14095;DHT22;18096;48.142;16.290;2023-01-16T02:10:53;6.80;99.90
14095;DHT22;18096;48.142;16.290;2023-01-16T02:13:21;6.80;99.90
14095;DHT22;18096;48.142;16.290;2023-01-16T02:15:47;6.80;99.90
14095;DHT22;18096;48.142;16.290;2023-01-16T02:18:31;6.80;99.90
14095;DHT22;18096;48.142;16.290;2023-01-16T02:24:00;6.70;99.90
14095;DHT22;18096;48.142;16.290;2023-01-16T02:35:06;6.60;99.90
14095;DHT22;18096;48.142;16.290;2023-01-16T02:37:49;6.60;99.90
14095;DHT22;18096;48.142;16.290;2023-01-16T02:45:29;6.60;99.90
14095;DHT22;18096;48.142;16.290;2023-01-16T02:48:28;6.60;99.90
14095;DHT22;18096;48.142;16.290;2023-01-16T02:51:08;6.60;99.90
14095;DHT22;18096;48.142;16.290;2023-01-16T02:56:43;6.50;99.90
14095;DHT22;18096;48.142;16.290;2023-01-16T02:59:13;6.50;99.90
14095;DHT22;18096;48.142;16.290;2023-01-16T03:01:39;6.40;99.90
14095;DHT22;18096;48.142;16.290;2023-01-16T03:10:05;6.40;99.90
14095;DHT22;18096;48.142;16.290;2023-01-16T03:20:50;6.30;99.90
14095;DHT22;18096;48.142;16.290;2023-01-16T03:23:40;6.40;99.90
14095;DHT22;18096;48.142;16.290;2023-01-16T03:26:13;6.40;99.90
14095;DHT22;18096;48.142;16.290;2023-01-16T03:32:02;6.40;99.90
14095;DHT22;18096;48.142;16.290;2023-01-16T03:39:44;6.30;99.90
14095;DHT22;18096;48.142;16.290;2023-01-16T03:42:17;6.30;99.90
14095;DHT22;18096;48.142;16.290;2023-01-16T03:44:52;6.20;99.90
14095;DHT22;18096;48.142;16.290;2023-01-16T03:47:31;6.20;99.90
14095;DHT22;18096;48.142;16.290;2023-01-16T03:50:03;6.20;99.90
14095;DHT22;18096;48.142;16.290;2023-01-16T03:52:39;6.10;99.90
14095;DHT22;18096;48.142;16.290;2023-01-16T03:55:28;6.20;99.90
14095;DHT22;18096;48.142;16.290;2023-01-16T03:57:59;6.10;99.90
14095;DHT22;18096;48.142;16.290;2023-01-16T04:00:31;6.10;99.90
14095;DHT22;18096;48.142;16.290;2023-01-16T04:03:05;6.10;99.90
14095;DHT22;18096;48.142;16.290;2023-01-16T04:05:55;6.10;99.90
14095;DHT22;18096;48.142;16.290;2023-01-16T04:08:28;6.10;99.90
14095;DHT22;18096;48.142;16.290;2023-01-16T04:10:56;6.20;99.90
14095;DHT22;18096;48.142;16.290;2023-01-16T04:13:28;6.20;99.90
14095;DHT22;18096;48.142;16.290;2023-01-16T04:15:56;6.20;99.90
14095;DHT22;18096;48.142;16.290;2023-01-16T04:18:30;6.20;99.90
14095;DHT22;18096;48.142;16.290;2023-01-16T04:20:56;6.20;99.90
14095;DHT22;18096;48.142;16.290;2023-01-16T04:23:22;6.20;99.90
14095;DHT22;18096;48.142;16.290;2023-01-16T04:25:48;6.20;99.90
14095;DHT22;18096;48.142;16.290;2023-01-16T04:28:13;6.20;99.90
14095;DHT22;18096;48.142;16.290;2023-01-16T04:30:39;6.30;99.90
14095;DHT22;18096;48.142;16.290;2023-01-16T04:33:05;6.30;99.90
14095;DHT22;18096;48.142;16.290;2023-01-16T04:35:31;6.30;99.90
14095;DHT22;18096;48.142;16.290;2023-01-16T04:37:57;6.30;99.90
14095;DHT22;18096;48.142;16.290;2023-01-16T04:40:23;6.30;99.90
14095;DHT22;18096;48.142;16.290;2023-01-16T04:42:49;6.20;99.90
14095;DHT22;18096;48.142;16.290;2023-01-16T04:45:15;6.20;99.90
14095;DHT22;18096;48.142;16.290;2023-01-16T04:47:45;6.20;99.90
14095;DHT22;18096;48.142;16.290;2023-01-16T04:50:11;6.20;99.90
14095;DHT22;18096;48.142;16.290;2023-01-16T04:52:36;6.30;99.90
14095;DHT22;18096;48.142;16.290;2023-01-16T04:55:02;6.20;99.90
14095;DHT22;18096;48.142;16.290;2023-01-16T04:57:28;6.20;99.90
14095;DHT22;18096;48.142;16.290;2023-01-16T04:59:53;6.20;99.90
14095;DHT22;18096;48.142;16.290;2023-01-16T05:02:19;6.20;99.90
14095;DHT22;18096;48.142;16.290;2023-01-16T05:04:45;6.20;99.90
14095;DHT22;18096;48.142;16.290;2023-01-16T05:07:10;6.20;99.90
14095;DHT22;18096;48.142;16.290;2023-01-16T05:09:36;6.20;99.90
14095;DHT22;18096;48.142;16.290;2023-01-16T05:12:02;6.30;99.90
14095;DHT22;18096;48.142;16.290;2023-01-16T05:14:27;6.30;99.90
14095;DHT22;18096;48.142;16.290;2023-01-16T05:16:53;6.30;99.90
14095;DHT22;18096;48.142;16.290;2023-01-16T05:19:19;6.40;99.80
14095;DHT22;18096;48.142;16.290;2023-01-16T05:21:44;6.40;99.60
14095;DHT22;18096;48.142;16.290;2023-01-16T05:24:10;6.40;99.30
14095;DHT22;18096;48.142;16.290;2023-01-16T05:26:36;6.40;99.00
14095;DHT22;18096;48.142;16.290;2023-01-16T05:29:02;6.40;98.80
14095;DHT22;18096;48.142;16.290;2023-01-16T05:31:27;6.40;98.60
14095;DHT22;18096;48.142;16.290;2023-01-16T05:33:53;6.50;99.90
14095;DHT22;18096;48.142;16.290;2023-01-16T05:36:19;6.50;99.90
14095;DHT22;18096;48.142;16.290;2023-01-16T05:38:44;6.60;99.90
14095;DHT22;18096;48.142;16.290;2023-01-16T05:41:12;6.60;99.90
14095;DHT22;18096;48.142;16.290;2023-01-16T05:43:37;6.60;99.60
14095;DHT22;18096;48.142;16.290;2023-01-16T05:46:03;6.60;99.40
14095;DHT22;18096;48.142;16.290;2023-01-16T05:48:30;6.60;99.00
14095;DHT22;18096;48.142;16.290;2023-01-16T05:50:59;6.60;99.00
14095;DHT22;18096;48.142;16.290;2023-01-16T05:53:25;6.60;99.10
14095;DHT22;18096;48.142;16.290;2023-01-16T05:55:53;6.60;98.80
14095;DHT22;18096;48.142;16.290;2023-01-16T05:58:19;6.50;98.90
14095;DHT22;18096;48.142;16.290;2023-01-16T06:00:45;6.40;99.00
14095;DHT22;18096;48.142;16.290;2023-01-16T06:03:10;6.40;99.10
14095;DHT22;18096;48.142;16.290;2023-01-16T06:05:36;6.30;99.10
14095;DHT22;18096;48.142;16.290;2023-01-16T06:08:02;6.40;98.80
14095;DHT22;18096;48.142;16.290;2023-01-16T06:10:28;6.40;98.80
14095;DHT22;18096;48.142;16.290;2023-01-16T06:12:54;6.40;98.80
14095;DHT22;18096;48.142;16.290;2023-01-16T06:15:19;6.40;98.90
14095;DHT22;18096;48.142;16.290;2023-01-16T06:17:46;6.40;98.90
14095;DHT22;18096;48.142;16.290;2023-01-16T06:20:12;6.30;99.00
14095;DHT22;18096;48.142;16.290;2023-01-16T06:22:37;6.30;99.00
14095;DHT22;18096;48.142;16.290;2023-01-16T06:25:04;6.30;99.10
14095;DHT22;18096;48.142;16.290;2023-01-16T06:27:29;6.20;99.10
14095;DHT22;18096;48.142;16.290;2023-01-16T06:29:57;6.20;99.10
14095;DHT22;18096;48.142;16.290;2023-01-16T06:32:22;6.20;99.20
14095;DHT22;18096;48.142;16.290;2023-01-16T06:34:48;6.10;99.10
14095;DHT22;18096;48.142;16.290;2023-01-16T06:37:14;6.10;99.20
14095;DHT22;18096;48.142;16.290;2023-01-16T06:39:39;6.10;99.20
14095;DHT22;18096;48.142;16.290;2023-01-16T06:42:05;6.10;99.10
14095;DHT22;18096;48.142;16.290;2023-01-16T06:44:34;6.10;99.10
14095;DHT22;18096;48.142;16.290;2023-01-16T06:47:01;6.10;99.20
14095;DHT22;18096;48.142;16.290;2023-01-16T06:49:26;6.20;99.30
14095;DHT22;18096;48.142;16.290;2023-01-16T06:51:52;6.20;99.30
14095;DHT22;18096;48.142;16.290;2023-01-16T06:54:18;6.20;99.50
14095;DHT22;18096;48.142;16.290;2023-01-16T06:56:44;6.30;99.80
14095;DHT22;18096;48.142;16.290;2023-01-16T06:59:10;6.20;99.90
14095;DHT22;18096;48.142;16.290;2023-01-16T07:01:36;6.20;99.90
14095;DHT22;18096;48.142;16.290;2023-01-16T07:04:01;6.20;99.90
14095;DHT22;18096;48.142;16.290;2023-01-16T07:06:27;6.20;99.90
14095;DHT22;18096;48.142;16.290;2023-01-16T07:08:53;6.20;99.90
14095;DHT22;18096;48.142;16.290;2023-01-16T07:11:19;6.10;99.90
14095;DHT22;18096;48.142;16.290;2023-01-16T07:13:45;6.10;99.90
14095;DHT22;18096;48.142;16.290;2023-01-16T07:16:11;6.10;99.90
14095;DHT22;18096;48.142;16.290;2023-01-16T07:18:57;6.00;99.90
14095;DHT22;18096;48.142;16.290;2023-01-16T07:21:43;5.90;99.90
14095;DHT22;18096;48.142;16.290;2023-01-16T07:24:32;5.90;99.90
14095;DHT22;18096;48.142;16.290;2023-01-16T07:27:00;5.90;99.90
14095;DHT22;18096;48.142;16.290;2023-01-16T07:29:29;5.90;99.90
14095;DHT22;18096;48.142;16.290;2023-01-16T07:31:58;5.90;99.90
14095;DHT22;18096;48.142;16.290;2023-01-16T07:34:24;6.00;99.90
14095;DHT22;18096;48.142;16.290;2023-01-16T07:36:50;6.00;99.90
14095;DHT22;18096;48.142;16.290;2023-01-16T07:39:15;6.00;99.90
14095;DHT22;18096;48.142;16.290;2023-01-16T07:41:41;6.00;99.90
14095;DHT22;18096;48.142;16.290;2023-01-16T07:44:07;6.10;99.90
14095;DHT22;18096;48.142;16.290;2023-01-16T07:46:32;6.00;99.90
14095;DHT22;18096;48.142;16.290;2023-01-16T07:48:58;6.00;99.90
14095;DHT22;18096;48.142;16.290;2023-01-16T07:51:24;6.00;99.90
14095;DHT22;18096;48.142;16.290;2023-01-16T07:53:50;6.00;99.90
14095;DHT22;18096;48.142;16.290;2023-01-16T07:56:16;6.00;99.90
14095;DHT22;18096;48.142;16.290;2023-01-16T07:58:41;5.90;99.90
14095;DHT22;18096;48.142;16.290;2023-01-16T08:01:09;6.00;99.90
14095;DHT22;18096;48.142;16.290;2023-01-16T08:03:36;6.00;99.90
14095;DHT22;18096;48.142;16.290;2023-01-16T08:06:02;6.00;99.90
14095;DHT22;18096;48.142;16.290;2023-01-16T08:08:29;6.10;99.90
14095;DHT22;18096;48.142;16.290;2023-01-16T08:10:56;6.10;99.90
14095;DHT22;18096;48.142;16.290;2023-01-16T08:13:23;6.20;99.90
14095;DHT22;18096;48.142;16.290;2023-01-16T08:15:49;6.20;99.90
14095;DHT22;18096;48.142;16.290;2023-01-16T08:18:18;6.20;99.90
14095;DHT22;18096;48.142;16.290;2023-01-16T08:20:45;6.20;99.90
14095;DHT22;18096;48.142;16.290;2023-01-16T08:23:12;6.20;99.90
14095;DHT22;18096;48.142;16.290;2023-01-16T08:25:38;6.20;99.90
14095;DHT22;18096;48.142;16.290;2023-01-16T08:28:04;6.20;99.90
14095;DHT22;18096;48.142;16.290;2023-01-16T08:30:31;6.30;99.90
14095;DHT22;18096;48.142;16.290;2023-01-16T08:32:57;6.30;99.90
14095;DHT22;18096;48.142;16.290;2023-01-16T08:35:24;6.30;99.90
14095;DHT22;18096;48.142;16.290;2023-01-16T08:37:50;6.30;99.90
14095;DHT22;18096;48.142;16.290;2023-01-16T08:40:16;6.30;99.90
14095;DHT22;18096;48.142;16.290;2023-01-16T08:42:42;6.20;99.90
14095;DHT22;18096;48.142;16.290;2023-01-16T08:45:26;6.20;99.90
14095;DHT22;18096;48.142;16.290;2023-01-16T08:48:11;6.20;99.90
14095;DHT22;18096;48.142;16.290;2023-01-16T08:50:57;6.30;99.90
14095;DHT22;18096;48.142;16.290;2023-01-16T08:53:41;6.30;99.90
14095;DHT22;18096;48.142;16.290;2023-01-16T08:56:07;6.30;99.90
14095;DHT22;18096;48.142;16.290;2023-01-16T08:58:33;6.30;99.90
14095;DHT22;18096;48.142;16.290;2023-01-16T09:00:59;6.40;99.90
14095;DHT22;18096;48.142;16.290;2023-01-16T09:03:24;6.40;99.90
14095;DHT22;18096;48.142;16.290;2023-01-16T09:05:50;6.50;99.90
14095;DHT22;18096;48.142;16.290;2023-01-16T09:08:15;6.50;99.90
14095;DHT22;18096;48.142;16.290;2023-01-16T09:10:41;6.60;99.90
14095;DHT22;18096;48.142;16.290;2023-01-16T09:13:27;6.60;99.90
14095;DHT22;18096;48.142;16.290;2023-01-16T09:16:23;6.70;99.90
14095;DHT22;18096;48.142;16.290;2023-01-16T09:18:50;6.70;99.90
14095;DHT22;18096;48.142;16.290;2023-01-16T09:21:16;6.80;99.90
14095;DHT22;18096;48.142;16.290;2023-01-16T09:23:46;6.80;99.90
14095;DHT22;18096;48.142;16.290;2023-01-16T09:26:11;6.70;99.90
14095;DHT22;18096;48.142;16.290;2023-01-16T09:28:37;6.70;99.90
14095;DHT22;18096;48.142;16.290;2023-01-16T09:31:03;6.70;99.90
14095;DHT22;18096;48.142;16.290;2023-01-16T09:33:29;6.70;99.90
14095;DHT22;18096;48.142;16.290;2023-01-16T09:35:55;6.60;99.90
14095;DHT22;18096;48.142;16.290;2023-01-16T09:38:20;6.60;99.90
14095;DHT22;18096;48.142;16.290;2023-01-16T09:40:47;6.50;99.90
14095;DHT22;18096;48.142;16.290;2023-01-16T09:46:27;6.50;99.90
14095;DHT22;18096;48.142;16.290;2023-01-16T09:51:39;6.50;99.90
14095;DHT22;18096;48.142;16.290;2023-01-16T09:54:16;6.50;99.90
14095;DHT22;18096;48.142;16.290;2023-01-16T09:57:10;6.60;99.90
14095;DHT22;18096;48.142;16.290;2023-01-16T09:59:57;6.60;99.90
14095;DHT22;18096;48.142;16.290;2023-01-16T10:02:27;6.60;99.90
14095;DHT22;18096;48.142;16.290;2023-01-16T10:04:55;6.70;99.90
14095;DHT22;18096;48.142;16.290;2023-01-16T10:30:04;7.00;99.90
14095;DHT22;18096;48.142;16.290;2023-01-16T10:32:45;7.00;99.90
14095;DHT22;18096;48.142;16.290;2023-01-16T10:35:19;7.10;99.90
14095;DHT22;18096;48.142;16.290;2023-01-16T10:37:46;7.10;99.90
14095;DHT22;18096;48.142;16.290;2023-01-16T10:40:14;7.10;99.90
14095;DHT22;18096;48.142;16.290;2023-01-16T10:42:41;7.10;99.90
14095;DHT22;18096;48.142;16.290;2023-01-16T10:45:30;7.10;99.90
14095;DHT22;18096;48.142;16.290;2023-01-16T10:48:16;7.10;99.90
14095;DHT22;18096;48.142;16.290;2023-01-16T10:51:01;7.10;99.90
14095;DHT22;18096;48.142;16.290;2023-01-16T10:53:28;7.10;99.90
14095;DHT22;18096;48.142;16.290;2023-01-16T10:55:55;7.10;99.90
14095;DHT22;18096;48.142;16.290;2023-01-16T11:00:50;7.10;99.90
14095;DHT22;18096;48.142;16.290;2023-01-16T11:03:32;7.00;99.90
14095;DHT22;18096;48.142;16.290;2023-01-16T11:06:07;7.00;99.90
14095;DHT22;18096;48.142;16.290;2023-01-16T11:08:34;7.10;99.90
14095;DHT22;18096;48.142;16.290;2023-01-16T11:11:00;7.10;99.90
14095;DHT22;18096;48.142;16.290;2023-01-16T11:13:27;7.10;99.90
14095;DHT22;18096;48.142;16.290;2023-01-16T11:22:23;7.10;99.90
14095;DHT22;18096;48.142;16.290;2023-01-16T11:24:56;7.20;99.90
14095;DHT22;18096;48.142;16.290;2023-01-16T11:27:28;7.20;99.90
14095;DHT22;18096;48.142;16.290;2023-01-16T11:29:55;7.20;99.70
14095;DHT22;18096;48.142;16.290;2023-01-16T11:32:23;7.10;99.90
14095;DHT22;18096;48.142;16.290;2023-01-16T11:34:54;7.10;99.90
14095;DHT22;18096;48.142;16.290;2023-01-16T11:37:22;7.00;99.80
14095;DHT22;18096;48.142;16.290;2023-01-16T11:39:51;7.00;99.90
14095;DHT22;18096;48.142;16.290;2023-01-16T11:42:18;6.90;99.90
14095;DHT22;18096;48.142;16.290;2023-01-16T11:45:20;6.90;99.90
14095;DHT22;18096;48.142;16.290;2023-01-16T11:48:08;6.80;99.90
14095;DHT22;18096;48.142;16.290;2023-01-16T11:50:57;6.70;99.90
14095;DHT22;18096;48.142;16.290;2023-01-16T11:53:30;6.70;99.90
14095;DHT22;18096;48.142;16.290;2023-01-16T11:59:04;6.70;99.90
14095;DHT22;18096;48.142;16.290;2023-01-16T12:01:44;6.60;99.90
14095;DHT22;18096;48.142;16.290;2023-01-16T12:04:30;6.60;99.90
14095;DHT22;18096;48.142;16.290;2023-01-16T12:07:23;6.60;99.90
14095;DHT22;18096;48.142;16.290;2023-01-16T12:10:19;6.60;99.90
14095;DHT22;18096;48.142;16.290;2023-01-16T12:12:59;6.50;99.90
14095;DHT22;18096;48.142;16.290;2023-01-16T12:18:40;6.60;99.90
14095;DHT22;18096;48.142;16.290;2023-01-16T12:21:32;6.60;99.90
14095;DHT22;18096;48.142;16.290;2023-01-16T12:26:34;6.70;99.90
14095;DHT22;18096;48.142;16.290;2023-01-16T12:29:15;6.70;99.90
14095;DHT22;18096;48.142;16.290;2023-01-16T12:32:06;6.60;99.90
14095;DHT22;18096;48.142;16.290;2023-01-16T12:34:44;6.70;99.90
14095;DHT22;18096;48.142;16.290;2023-01-16T12:42:28;6.70;99.90
14095;DHT22;18096;48.142;16.290;2023-01-16T12:45:23;6.70;99.90
14095;DHT22;18096;48.142;16.290;2023-01-16T12:51:09;6.60;99.90
14095;DHT22;18096;48.142;16.290;2023-01-16T12:56:42;6.60;99.90
14095;DHT22;18096;48.142;16.290;2023-01-16T12:59:33;6.60;99.90
14095;DHT22;18096;48.142;16.290;2023-01-16T13:05:01;6.60;99.90
14095;DHT22;18096;48.142;16.290;2023-01-16T13:07:35;6.50;99.90
14095;DHT22;18096;48.142;16.290;2023-01-16T13:10:30;6.40;99.90
14095;DHT22;18096;48.142;16.290;2023-01-16T13:13:26;6.40;99.90
14095;DHT22;18096;48.142;16.290;2023-01-16T13:16:12;6.30;99.90
14095;DHT22;18096;48.142;16.290;2023-01-16T13:21:41;6.20;99.90
14095;DHT22;18096;48.142;16.290;2023-01-16T13:24:21;6.30;99.90
14095;DHT22;18096;48.142;16.290;2023-01-16T13:26:59;6.30;99.90
14095;DHT22;18096;48.142;16.290;2023-01-16T13:29:33;6.20;99.90
14095;DHT22;18096;48.142;16.290;2023-01-16T13:32:11;6.20;99.90
14095;DHT22;18096;48.142;16.290;2023-01-16T13:34:45;6.20;99.90
14095;DHT22;18096;48.142;16.290;2023-01-16T13:37:56;6.10;99.90
14095;DHT22;18096;48.142;16.290;2023-01-16T13:40:50;6.10;99.90
14095;DHT22;18096;48.142;16.290;2023-01-16T13:43:31;6.10;99.90
14095;DHT22;18096;48.142;16.290;2023-01-16T13:46:16;6.10;99.90
14095;DHT22;18096;48.142;16.290;2023-01-16T13:48:42;6.10;99.90
14095;DHT22;18096;48.142;16.290;2023-01-16T13:51:16;6.10;99.90
14095;DHT22;18096;48.142;16.290;2023-01-16T13:53:46;6.10;99.90
14095;DHT22;18096;48.142;16.290;2023-01-16T13:56:18;6.10;99.90
14095;DHT22;18096;48.142;16.290;2023-01-16T13:59:14;6.10;99.90
14095;DHT22;18096;48.142;16.290;2023-01-16T14:04:32;6.10;99.90
14095;DHT22;18096;48.142;16.290;2023-01-16T14:07:00;6.10;99.90
14095;DHT22;18096;48.142;16.290;2023-01-16T14:10:06;6.10;99.90
14095;DHT22;18096;48.142;16.290;2023-01-16T14:12:42;6.10;99.90
14095;DHT22;18096;48.142;16.290;2023-01-16T14:15:16;6.10;99.90
14095;DHT22;18096;48.142;16.290;2023-01-16T14:18:11;6.10;99.90
14095;DHT22;18096;48.142;16.290;2023-01-16T14:20:51;6.00;99.90
14095;DHT22;18096;48.142;16.290;2023-01-16T14:23:33;6.00;99.90
14095;DHT22;18096;48.142;16.290;2023-01-16T14:26:32;6.00;99.90
14095;DHT22;18096;48.142;16.290;2023-01-16T14:31:40;5.90;99.90
14095;DHT22;18096;48.142;16.290;2023-01-16T14:34:34;5.90;99.90
14095;DHT22;18096;48.142;16.290;2023-01-16T14:37:17;5.90;99.90
14095;DHT22;18096;48.142;16.290;2023-01-16T14:39:51;5.90;99.90
14095;DHT22;18096;48.142;16.290;2023-01-16T14:42:21;5.90;99.90
14095;DHT22;18096;48.142;16.290;2023-01-16T14:48:04;5.90;99.90
14095;DHT22;18096;48.142;16.290;2023-01-16T14:50:59;5.90;99.90
14095;DHT22;18096;48.142;16.290;2023-01-16T14:53:45;5.90;99.90
14095;DHT22;18096;48.142;16.290;2023-01-16T14:56:33;5.90;99.90
14095;DHT22;18096;48.142;16.290;2023-01-16T14:59:22;5.80;99.90
14095;DHT22;18096;48.142;16.290;2023-01-16T15:04:54;5.70;99.90
14095;DHT22;18096;48.142;16.290;2023-01-16T15:07:45;5.70;99.90
14095;DHT22;18096;48.142;16.290;2023-01-16T15:12:43;5.60;99.90
14095;DHT22;18096;48.142;16.290;2023-01-16T15:15:20;5.50;99.90
14095;DHT22;18096;48.142;16.290;2023-01-16T15:17:46;5.50;99.90
14095;DHT22;18096;48.142;16.290;2023-01-16T15:20:33;5.50;99.90
14095;DHT22;18096;48.142;16.290;2023-01-16T15:28:50;5.50;99.90
14095;DHT22;18096;48.142;16.290;2023-01-16T15:31:33;5.40;99.90
14095;DHT22;18096;48.142;16.290;2023-01-16T15:34:17;5.40;99.90
14095;DHT22;18096;48.142;16.290;2023-01-16T15:36:46;5.30;99.90
14095;DHT22;18096;48.142;16.290;2023-01-16T15:39:20;5.40;99.90
14095;DHT22;18096;48.142;16.290;2023-01-16T15:42:15;5.30;99.90
14095;DHT22;18096;48.142;16.290;2023-01-16T15:45:11;5.30;99.90
14095;DHT22;18096;48.142;16.290;2023-01-16T15:48:44;5.30;99.90
14095;DHT22;18096;48.142;16.290;2023-01-16T15:51:15;5.30;99.90
14095;DHT22;18096;48.142;16.290;2023-01-16T15:53:45;5.30;99.90
14095;DHT22;18096;48.142;16.290;2023-01-16T15:56:24;5.30;99.90
14095;DHT22;18096;48.142;16.290;2023-01-16T15:58:52;5.30;99.90
14095;DHT22;18096;48.142;16.290;2023-01-16T16:01:32;5.20;99.90
14095;DHT22;18096;48.142;16.290;2023-01-16T16:04:01;5.20;99.90
14095;DHT22;18096;48.142;16.290;2023-01-16T16:06:28;5.20;99.90
14095;DHT22;18096;48.142;16.290;2023-01-16T16:08:56;5.20;99.90
14095;DHT22;18096;48.142;16.290;2023-01-16T16:11:30;5.20;99.90
14095;DHT22;18096;48.142;16.290;2023-01-16T16:14:32;5.20;99.90
14095;DHT22;18096;48.142;16.290;2023-01-16T16:17:25;5.20;99.90
14095;DHT22;18096;48.142;16.290;2023-01-16T16:25:54;5.10;99.90
14095;DHT22;18096;48.142;16.290;2023-01-16T16:31:20;5.00;99.90
14095;DHT22;18096;48.142;16.290;2023-01-16T16:34:25;5.00;99.90
14095;DHT22;18096;48.142;16.290;2023-01-16T16:36:57;5.00;99.90
14095;DHT22;18096;48.142;16.290;2023-01-16T16:47:33;5.10;99.90
14095;DHT22;18096;48.142;16.290;2023-01-16T16:50:00;5.10;99.90
14095;DHT22;18096;48.142;16.290;2023-01-16T16:52:33;5.00;99.90
14095;DHT22;18096;48.142;16.290;2023-01-16T16:55:01;5.00;99.90
14095;DHT22;18096;48.142;16.290;2023-01-16T16:57:39;5.00;99.90
14095;DHT22;18096;48.142;16.290;2023-01-16T17:00:08;4.90;99.90
14095;DHT22;18096;48.142;16.290;2023-01-16T17:02:39;4.90;99.90
14095;DHT22;18096;48.142;16.290;2023-01-16T17:05:05;4.90;99.90
14095;DHT22;18096;48.142;16.290;2023-01-16T17:07:31;4.90;99.90
14095;DHT22;18096;48.142;16.290;2023-01-16T17:09:59;4.90;99.90
14095;DHT22;18096;48.142;16.290;2023-01-16T17:12:25;5.00;99.90
14095;DHT22;18096;48.142;16.290;2023-01-16T17:14:51;5.00;99.90
14095;DHT22;18096;48.142;16.290;2023-01-16T17:17:18;5.00;99.90
14095;DHT22;18096;48.142;16.290;2023-01-16T17:19:44;5.00;99.90
14095;DHT22;18096;48.142;16.290;2023-01-16T17:22:11;5.00;99.90
14095;DHT22;18096;48.142;16.290;2023-01-16T17:24:37;5.10;99.90
14095;DHT22;18096;48.142;16.290;2023-01-16T17:27:04;5.00;99.90
14095;DHT22;18096;48.142;16.290;2023-01-16T17:29:35;5.00;99.90
14095;DHT22;18096;48.142;16.290;2023-01-16T17:32:02;5.00;99.90
14095;DHT22;18096;48.142;16.290;2023-01-16T17:34:31;5.00;99.90
14095;DHT22;18096;48.142;16.290;2023-01-16T17:36:58;5.00;99.90
14095;DHT22;18096;48.142;16.290;2023-01-16T17:39:24;5.00;99.90
14095;DHT22;18096;48.142;16.290;2023-01-16T17:41:51;4.90;99.90
14095;DHT22;18096;48.142;16.290;2023-01-16T17:44:23;4.90;99.90
14095;DHT22;18096;48.142;16.290;2023-01-16T17:47:08;4.90;99.90
14095;DHT22;18096;48.142;16.290;2023-01-16T17:49:35;5.00;99.90
14095;DHT22;18096;48.142;16.290;2023-01-16T17:52:21;5.00;99.90
14095;DHT22;18096;48.142;16.290;2023-01-16T17:54:47;5.00;99.90
14095;DHT22;18096;48.142;16.290;2023-01-16T17:57:31;4.90;99.90
14095;DHT22;18096;48.142;16.290;2023-01-16T17:59:58;5.00;99.90
14095;DHT22;18096;48.142;16.290;2023-01-16T18:02:24;5.00;99.90
14095;DHT22;18096;48.142;16.290;2023-01-16T18:04:49;5.00;99.90
14095;DHT22;18096;48.142;16.290;2023-01-16T18:07:18;5.00;99.90
14095;DHT22;18096;48.142;16.290;2023-01-16T18:09:44;5.00;99.90
14095;DHT22;18096;48.142;16.290;2023-01-16T18:12:16;5.00;99.90
14095;DHT22;18096;48.142;16.290;2023-01-16T18:15:00;5.00;99.90
14095;DHT22;18096;48.142;16.290;2023-01-16T18:17:44;5.00;99.90
14095;DHT22;18096;48.142;16.290;2023-01-16T18:20:11;4.90;99.90
14095;DHT22;18096;48.142;16.290;2023-01-16T18:22:37;4.80;99.90
14095;DHT22;18096;48.142;16.290;2023-01-16T18:25:05;4.80;99.90